sensor_id;sensor_type;location;lat;lon;timestamp;P1;durP1;ratioP1;P2;durP2;ratioP2
31238;SDS011;17871;31.584;74.450;2024-02-14T00:01:53;354.35;;;159.30;;
31238;SDS011;17871;31.584;74.450;2024-02-14T00:04:23;359.75;;;152.40;;
31238;SDS011;17871;31.584;74.450;2024-02-14T00:06:52;374.95;;;152.20;;
31238;SDS011;17871;31.584;74.450;2024-02-14T00:09:21;349.27;;;159.13;;
31238;SDS011;17871;31.584;74.450;2024-02-14T00:11:50;329.23;;;151.25;;
31238;SDS011;17871;31.584;74.450;2024-02-14T00:14:20;353.65;;;149.23;;
31238;SDS011;17871;31.584;74.450;2024-02-14T00:16:49;347.85;;;156.70;;
31238;SDS011;17871;31.584;74.450;2024-02-14T00:19:19;333.85;;;146.15;;
31238;SDS011;17871;31.584;74.450;2024-02-14T00:21:48;346.42;;;148.30;;
31238;SDS011;17871;31.584;74.450;2024-02-14T00:24:17;339.52;;;148.27;;
31238;SDS011;17871;31.584;74.450;2024-02-14T00:26:46;359.45;;;153.10;;
31238;SDS011;17871;31.584;74.450;2024-02-14T00:29:15;356.23;;;155.43;;
31238;SDS011;17871;31.584;74.450;2024-02-14T00:31:44;356.65;;;155.02;;
31238;SDS011;17871;31.584;74.450;2024-02-14T00:34:13;359.90;;;155.45;;
31238;SDS011;17871;31.584;74.450;2024-02-14T00:36:43;380.65;;;160.55;;
31238;SDS011;17871;31.584;74.450;2024-02-14T00:39:12;378.25;;;167.77;;
31238;SDS011;17871;31.584;74.450;2024-02-14T00:41:41;399.90;;;162.65;;
31238;SDS011;17871;31.584;74.450;2024-02-14T00:44:10;392.27;;;168.15;;
31238;SDS011;17871;31.584;74.450;2024-02-14T00:46:39;381.40;;;162.73;;
31238;SDS011;17871;31.584;74.450;2024-02-14T00:49:08;383.85;;;165.98;;
31238;SDS011;17871;31.584;74.450;2024-02-14T00:51:37;365.63;;;159.43;;
31238;SDS011;17871;31.584;74.450;2024-02-14T00:54:07;356.08;;;150.55;;
31238;SDS011;17871;31.584;74.450;2024-02-14T00:56:36;349.15;;;147.77;;
31238;SDS011;17871;31.584;74.450;2024-02-14T00:59:05;354.90;;;150.02;;
31238;SDS011;17871;31.584;74.450;2024-02-14T01:01:36;306.88;;;132.02;;
31238;SDS011;17871;31.584;74.450;2024-02-14T01:04:05;292.83;;;130.20;;
31238;SDS011;17871;31.584;74.450;2024-02-14T01:06:34;299.55;;;127.05;;
31238;SDS011;17871;31.584;74.450;2024-02-14T01:09:03;275.83;;;119.13;;
31238;SDS011;17871;31.584;74.450;2024-02-14T01:11:32;237.55;;;111.75;;
31238;SDS011;17871;31.584;74.450;2024-02-14T01:14:01;234.93;;;110.03;;
31238;SDS011;17871;31.584;74.450;2024-02-14T01:16:30;251.35;;;110.15;;
31238;SDS011;17871;31.584;74.450;2024-02-14T01:18:59;242.63;;;111.22;;
31238;SDS011;17871;31.584;74.450;2024-02-14T01:21:28;260.13;;;111.78;;
31238;SDS011;17871;31.584;74.450;2024-02-14T01:23:57;234.57;;;107.80;;
31238;SDS011;17871;31.584;74.450;2024-02-14T01:26:26;264.88;;;118.47;;
31238;SDS011;17871;31.584;74.450;2024-02-14T01:28:55;258.10;;;115.28;;
31238;SDS011;17871;31.584;74.450;2024-02-14T01:31:24;255.63;;;113.53;;
31238;SDS011;17871;31.584;74.450;2024-02-14T01:33:53;256.10;;;115.35;;
31238;SDS011;17871;31.584;74.450;2024-02-14T01:36:26;257.65;;;116.13;;
31238;SDS011;17871;31.584;74.450;2024-02-14T01:38:55;266.33;;;117.63;;
31238;SDS011;17871;31.584;74.450;2024-02-14T01:41:24;259.92;;;118.45;;
31238;SDS011;17871;31.584;74.450;2024-02-14T01:43:54;269.00;;;120.05;;
31238;SDS011;17871;31.584;74.450;2024-02-14T01:46:23;309.02;;;134.50;;
31238;SDS011;17871;31.584;74.450;2024-02-14T01:48:52;342.98;;;144.77;;
31238;SDS011;17871;31.584;74.450;2024-02-14T01:51:22;331.55;;;145.57;;
31238;SDS011;17871;31.584;74.450;2024-02-14T01:53:53;364.17;;;156.05;;
31238;SDS011;17871;31.584;74.450;2024-02-14T01:56:23;395.25;;;172.00;;
31238;SDS011;17871;31.584;74.450;2024-02-14T01:58:52;398.50;;;176.85;;
31238;SDS011;17871;31.584;74.450;2024-02-14T02:01:21;392.77;;;174.80;;
31238;SDS011;17871;31.584;74.450;2024-02-14T02:03:53;398.85;;;178.63;;
31238;SDS011;17871;31.584;74.450;2024-02-14T02:06:21;416.05;;;185.60;;
31238;SDS011;17871;31.584;74.450;2024-02-14T02:08:51;424.27;;;187.35;;
31238;SDS011;17871;31.584;74.450;2024-02-14T02:11:20;414.55;;;181.60;;
31238;SDS011;17871;31.584;74.450;2024-02-14T02:13:50;427.38;;;191.88;;
31238;SDS011;17871;31.584;74.450;2024-02-14T02:16:19;446.27;;;200.52;;
31238;SDS011;17871;31.584;74.450;2024-02-14T02:18:50;445.88;;;210.60;;
31238;SDS011;17871;31.584;74.450;2024-02-14T02:21:20;470.60;;;205.25;;
31238;SDS011;17871;31.584;74.450;2024-02-14T02:23:52;476.70;;;219.25;;
31238;SDS011;17871;31.584;74.450;2024-02-14T02:26:20;458.02;;;220.88;;
31238;SDS011;17871;31.584;74.450;2024-02-14T02:28:50;490.67;;;223.75;;
31238;SDS011;17871;31.584;74.450;2024-02-14T02:31:22;473.00;;;218.88;;
31238;SDS011;17871;31.584;74.450;2024-02-14T02:33:51;469.90;;;213.95;;
31238;SDS011;17871;31.584;74.450;2024-02-14T02:36:20;451.52;;;207.65;;
31238;SDS011;17871;31.584;74.450;2024-02-14T02:38:52;455.10;;;206.73;;
31238;SDS011;17871;31.584;74.450;2024-02-14T02:41:22;448.35;;;201.45;;
31238;SDS011;17871;31.584;74.450;2024-02-14T02:43:51;451.13;;;200.90;;
31238;SDS011;17871;31.584;74.450;2024-02-14T02:46:22;455.43;;;202.93;;
31238;SDS011;17871;31.584;74.450;2024-02-14T02:48:53;456.42;;;204.98;;
31238;SDS011;17871;31.584;74.450;2024-02-14T02:51:27;449.58;;;207.02;;
31238;SDS011;17871;31.584;74.450;2024-02-14T02:53:56;437.60;;;207.45;;
31238;SDS011;17871;31.584;74.450;2024-02-14T02:56:26;429.45;;;204.93;;
31238;SDS011;17871;31.584;74.450;2024-02-14T02:58:56;435.70;;;201.45;;
31238;SDS011;17871;31.584;74.450;2024-02-14T03:01:25;459.17;;;220.00;;
31238;SDS011;17871;31.584;74.450;2024-02-14T03:03:56;409.42;;;187.95;;
31238;SDS011;17871;31.584;74.450;2024-02-14T03:06:27;418.30;;;185.07;;
31238;SDS011;17871;31.584;74.450;2024-02-14T03:08:56;403.13;;;183.70;;
31238;SDS011;17871;31.584;74.450;2024-02-14T03:11:27;420.83;;;182.10;;
31238;SDS011;17871;31.584;74.450;2024-02-14T03:13:56;410.92;;;183.88;;
31238;SDS011;17871;31.584;74.450;2024-02-14T03:16:24;442.10;;;187.25;;
31238;SDS011;17871;31.584;74.450;2024-02-14T03:18:55;428.42;;;179.90;;
31238;SDS011;17871;31.584;74.450;2024-02-14T03:21:24;440.65;;;182.07;;
31238;SDS011;17871;31.584;74.450;2024-02-14T03:23:53;434.42;;;184.13;;
31238;SDS011;17871;31.584;74.450;2024-02-14T03:26:22;425.10;;;182.95;;
31238;SDS011;17871;31.584;74.450;2024-02-14T03:28:52;437.27;;;184.13;;
31238;SDS011;17871;31.584;74.450;2024-02-14T03:31:22;450.05;;;183.38;;
31238;SDS011;17871;31.584;74.450;2024-02-14T03:33:51;468.20;;;179.10;;
31238;SDS011;17871;31.584;74.450;2024-02-14T03:36:20;449.48;;;166.65;;
31238;SDS011;17871;31.584;74.450;2024-02-14T03:38:49;390.48;;;150.73;;
31238;SDS011;17871;31.584;74.450;2024-02-14T03:41:18;373.10;;;143.18;;
31238;SDS011;17871;31.584;74.450;2024-02-14T03:43:47;363.52;;;139.82;;
31238;SDS011;17871;31.584;74.450;2024-02-14T03:46:18;342.45;;;128.73;;
31238;SDS011;17871;31.584;74.450;2024-02-14T03:48:49;298.83;;;116.57;;
31238;SDS011;17871;31.584;74.450;2024-02-14T03:51:19;303.17;;;117.53;;
31238;SDS011;17871;31.584;74.450;2024-02-14T03:53:49;238.85;;;104.10;;
31238;SDS011;17871;31.584;74.450;2024-02-14T03:56:18;225.48;;;98.57;;
31238;SDS011;17871;31.584;74.450;2024-02-14T03:58:47;224.20;;;94.57;;
31238;SDS011;17871;31.584;74.450;2024-02-14T04:01:16;215.35;;;90.20;;
31238;SDS011;17871;31.584;74.450;2024-02-14T04:03:46;213.50;;;88.53;;
31238;SDS011;17871;31.584;74.450;2024-02-14T04:06:17;187.98;;;83.00;;
31238;SDS011;17871;31.584;74.450;2024-02-14T04:08:46;193.23;;;83.47;;
31238;SDS011;17871;31.584;74.450;2024-02-14T04:11:16;172.13;;;80.05;;
31238;SDS011;17871;31.584;74.450;2024-02-14T04:13:45;186.23;;;84.43;;
31238;SDS011;17871;31.584;74.450;2024-02-14T04:16:14;185.80;;;76.97;;
31238;SDS011;17871;31.584;74.450;2024-02-14T04:18:43;188.25;;;77.72;;
31238;SDS011;17871;31.584;74.450;2024-02-14T04:21:12;190.23;;;77.55;;
31238;SDS011;17871;31.584;74.450;2024-02-14T04:23:42;177.85;;;77.85;;
31238;SDS011;17871;31.584;74.450;2024-02-14T04:26:18;149.77;;;70.90;;
31238;SDS011;17871;31.584;74.450;2024-02-14T04:28:48;171.10;;;71.30;;
31238;SDS011;17871;31.584;74.450;2024-02-14T04:31:17;164.10;;;69.82;;
31238;SDS011;17871;31.584;74.450;2024-02-14T04:33:46;155.52;;;69.32;;
31238;SDS011;17871;31.584;74.450;2024-02-14T04:36:20;136.93;;;67.00;;
31238;SDS011;17871;31.584;74.450;2024-02-14T04:38:51;156.10;;;65.47;;
31238;SDS011;17871;31.584;74.450;2024-02-14T04:41:21;144.40;;;65.90;;
31238;SDS011;17871;31.584;74.450;2024-02-14T04:43:52;132.85;;;57.13;;
31238;SDS011;17871;31.584;74.450;2024-02-14T04:46:21;106.30;;;54.33;;
31238;SDS011;17871;31.584;74.450;2024-02-14T04:48:50;123.05;;;53.55;;
31238;SDS011;17871;31.584;74.450;2024-02-14T04:51:20;128.18;;;53.35;;
31238;SDS011;17871;31.584;74.450;2024-02-14T04:53:49;99.60;;;48.22;;
31238;SDS011;17871;31.584;74.450;2024-02-14T04:56:19;108.93;;;53.15;;
31238;SDS011;17871;31.584;74.450;2024-02-14T04:58:52;122.60;;;50.22;;
31238;SDS011;17871;31.584;74.450;2024-02-14T05:01:21;89.72;;;43.90;;
31238;SDS011;17871;31.584;74.450;2024-02-14T05:03:51;86.75;;;44.17;;
31238;SDS011;17871;31.584;74.450;2024-02-14T05:06:20;88.30;;;41.38;;
31238;SDS011;17871;31.584;74.450;2024-02-14T05:08:49;92.68;;;43.78;;
31238;SDS011;17871;31.584;74.450;2024-02-14T05:11:20;109.93;;;46.88;;
31238;SDS011;17871;31.584;74.450;2024-02-14T05:13:48;94.15;;;43.35;;
31238;SDS011;17871;31.584;74.450;2024-02-14T05:16:18;91.60;;;42.70;;
31238;SDS011;17871;31.584;74.450;2024-02-14T05:18:47;100.97;;;43.45;;
31238;SDS011;17871;31.584;74.450;2024-02-14T05:21:19;101.38;;;46.60;;
31238;SDS011;17871;31.584;74.450;2024-02-14T05:23:49;95.95;;;47.13;;
31238;SDS011;17871;31.584;74.450;2024-02-14T05:26:18;112.82;;;49.35;;
31238;SDS011;17871;31.584;74.450;2024-02-14T05:28:47;106.85;;;47.28;;
31238;SDS011;17871;31.584;74.450;2024-02-14T05:31:17;106.30;;;47.97;;
31238;SDS011;17871;31.584;74.450;2024-02-14T05:33:46;92.25;;;42.45;;
31238;SDS011;17871;31.584;74.450;2024-02-14T05:36:17;108.78;;;42.13;;
31238;SDS011;17871;31.584;74.450;2024-02-14T05:38:46;90.10;;;42.05;;
31238;SDS011;17871;31.584;74.450;2024-02-14T05:41:18;98.95;;;44.30;;
31238;SDS011;17871;31.584;74.450;2024-02-14T05:43:47;88.22;;;42.05;;
31238;SDS011;17871;31.584;74.450;2024-02-14T05:46:16;99.68;;;44.05;;
31238;SDS011;17871;31.584;74.450;2024-02-14T05:48:45;98.53;;;41.53;;
31238;SDS011;17871;31.584;74.450;2024-02-14T05:51:14;106.72;;;43.05;;
31238;SDS011;17871;31.584;74.450;2024-02-14T05:53:45;109.38;;;49.28;;
31238;SDS011;17871;31.584;74.450;2024-02-14T05:56:14;108.22;;;49.35;;
31238;SDS011;17871;31.584;74.450;2024-02-14T05:58:44;107.07;;;48.78;;
31238;SDS011;17871;31.584;74.450;2024-02-14T06:01:13;118.53;;;46.90;;
31238;SDS011;17871;31.584;74.450;2024-02-14T06:03:42;107.53;;;47.72;;
31238;SDS011;17871;31.584;74.450;2024-02-14T06:06:11;116.13;;;53.83;;
31238;SDS011;17871;31.584;74.450;2024-02-14T06:08:41;113.88;;;56.35;;
31238;SDS011;17871;31.584;74.450;2024-02-14T06:11:10;146.52;;;57.63;;
31238;SDS011;17871;31.584;74.450;2024-02-14T06:13:47;124.88;;;52.10;;
31238;SDS011;17871;31.584;74.450;2024-02-14T06:16:16;106.95;;;52.08;;
31238;SDS011;17871;31.584;74.450;2024-02-14T06:18:45;118.45;;;56.08;;
31238;SDS011;17871;31.584;74.450;2024-02-14T06:21:14;129.32;;;56.58;;
31238;SDS011;17871;31.584;74.450;2024-02-14T06:23:44;128.75;;;60.40;;
31238;SDS011;17871;31.584;74.450;2024-02-14T06:26:15;125.38;;;57.10;;
31238;SDS011;17871;31.584;74.450;2024-02-14T06:28:44;122.85;;;56.45;;
31238;SDS011;17871;31.584;74.450;2024-02-14T06:31:13;141.93;;;61.13;;
31238;SDS011;17871;31.584;74.450;2024-02-14T06:33:42;139.20;;;63.38;;
31238;SDS011;17871;31.584;74.450;2024-02-14T06:36:12;140.10;;;63.30;;
31238;SDS011;17871;31.584;74.450;2024-02-14T06:38:41;129.98;;;60.88;;
31238;SDS011;17871;31.584;74.450;2024-02-14T06:41:10;145.07;;;59.90;;
31238;SDS011;17871;31.584;74.450;2024-02-14T06:43:39;160.60;;;56.72;;
31238;SDS011;17871;31.584;74.450;2024-02-14T06:46:08;122.68;;;56.10;;
31238;SDS011;17871;31.584;74.450;2024-02-14T06:48:37;138.52;;;56.35;;
31238;SDS011;17871;31.584;74.450;2024-02-14T06:51:07;126.25;;;57.40;;
31238;SDS011;17871;31.584;74.450;2024-02-14T06:53:37;143.50;;;64.32;;
31238;SDS011;17871;31.584;74.450;2024-02-14T06:56:06;160.75;;;71.95;;
31238;SDS011;17871;31.584;74.450;2024-02-14T06:58:35;140.88;;;62.35;;
31238;SDS011;17871;31.584;74.450;2024-02-14T07:01:04;141.43;;;62.67;;
31238;SDS011;17871;31.584;74.450;2024-02-14T07:03:33;151.02;;;63.03;;
31238;SDS011;17871;31.584;74.450;2024-02-14T07:06:02;152.23;;;59.78;;
31238;SDS011;17871;31.584;74.450;2024-02-14T07:08:32;102.18;;;46.95;;
31238;SDS011;17871;31.584;74.450;2024-02-14T07:11:01;112.53;;;48.30;;
31238;SDS011;17871;31.584;74.450;2024-02-14T07:13:30;120.95;;;48.20;;
31238;SDS011;17871;31.584;74.450;2024-02-14T07:15:59;97.90;;;44.50;;
31238;SDS011;17871;31.584;74.450;2024-02-14T07:18:28;98.70;;;45.45;;
31238;SDS011;17871;31.584;74.450;2024-02-14T07:20:57;107.07;;;46.72;;
31238;SDS011;17871;31.584;74.450;2024-02-14T07:23:26;102.70;;;47.60;;
31238;SDS011;17871;31.584;74.450;2024-02-14T07:25:55;90.63;;;42.83;;
31238;SDS011;17871;31.584;74.450;2024-02-14T07:28:24;100.43;;;44.35;;
31238;SDS011;17871;31.584;74.450;2024-02-14T07:30:55;103.43;;;47.83;;
31238;SDS011;17871;31.584;74.450;2024-02-14T07:33:25;125.63;;;47.58;;
31238;SDS011;17871;31.584;74.450;2024-02-14T07:35:54;89.15;;;43.88;;
31238;SDS011;17871;31.584;74.450;2024-02-14T07:38:23;92.30;;;42.08;;
31238;SDS011;17871;31.584;74.450;2024-02-14T07:40:52;85.20;;;39.88;;
31238;SDS011;17871;31.584;74.450;2024-02-14T07:43:21;87.63;;;42.97;;
31238;SDS011;17871;31.584;74.450;2024-02-14T07:45:51;112.20;;;45.70;;
31238;SDS011;17871;31.584;74.450;2024-02-14T07:48:20;90.03;;;42.65;;
31238;SDS011;17871;31.584;74.450;2024-02-14T07:50:50;86.32;;;40.55;;
31238;SDS011;17871;31.584;74.450;2024-02-14T07:53:20;100.70;;;45.47;;
31238;SDS011;17871;31.584;74.450;2024-02-14T07:55:49;83.55;;;40.80;;
31238;SDS011;17871;31.584;74.450;2024-02-14T07:58:18;91.13;;;41.83;;
31238;SDS011;17871;31.584;74.450;2024-02-14T08:00:47;76.72;;;38.28;;
31238;SDS011;17871;31.584;74.450;2024-02-14T08:03:16;100.00;;;39.33;;
31238;SDS011;17871;31.584;74.450;2024-02-14T08:05:45;96.00;;;40.15;;
31238;SDS011;17871;31.584;74.450;2024-02-14T08:08:15;85.47;;;39.63;;
31238;SDS011;17871;31.584;74.450;2024-02-14T08:10:45;76.53;;;38.25;;
31238;SDS011;17871;31.584;74.450;2024-02-14T08:13:14;68.65;;;34.92;;
31238;SDS011;17871;31.584;74.450;2024-02-14T08:15:45;98.57;;;41.00;;
31238;SDS011;17871;31.584;74.450;2024-02-14T08:18:15;105.88;;;39.60;;
31238;SDS011;17871;31.584;74.450;2024-02-14T08:20:44;91.50;;;42.03;;
31238;SDS011;17871;31.584;74.450;2024-02-14T08:23:13;106.80;;;44.13;;
31238;SDS011;17871;31.584;74.450;2024-02-14T08:25:42;114.82;;;48.63;;
31238;SDS011;17871;31.584;74.450;2024-02-14T08:28:12;123.95;;;50.45;;
31238;SDS011;17871;31.584;74.450;2024-02-14T08:30:41;122.70;;;55.78;;
31238;SDS011;17871;31.584;74.450;2024-02-14T08:33:10;129.63;;;61.20;;
31238;SDS011;17871;31.584;74.450;2024-02-14T08:35:39;120.15;;;57.10;;
31238;SDS011;17871;31.584;74.450;2024-02-14T08:40:40;122.60;;;60.22;;
31238;SDS011;17871;31.584;74.450;2024-02-14T08:43:09;117.00;;;57.95;;
31238;SDS011;17871;31.584;74.450;2024-02-14T08:45:39;143.73;;;61.58;;
31238;SDS011;17871;31.584;74.450;2024-02-14T08:48:08;124.78;;;61.45;;
31238;SDS011;17871;31.584;74.450;2024-02-14T08:50:38;137.32;;;64.65;;
31238;SDS011;17871;31.584;74.450;2024-02-14T08:53:07;188.20;;;71.00;;
31238;SDS011;17871;31.584;74.450;2024-02-14T08:55:36;147.40;;;60.75;;
31238;SDS011;17871;31.584;74.450;2024-02-14T08:58:07;178.93;;;58.92;;
31238;SDS011;17871;31.584;74.450;2024-02-14T09:00:38;114.80;;;53.85;;
31238;SDS011;17871;31.584;74.450;2024-02-14T09:03:10;71.20;;;40.47;;
31238;SDS011;17871;31.584;74.450;2024-02-14T09:05:39;88.38;;;42.10;;
31238;SDS011;17871;31.584;74.450;2024-02-14T09:08:08;96.90;;;44.05;;
31238;SDS011;17871;31.584;74.450;2024-02-14T09:10:36;84.88;;;41.90;;
31238;SDS011;17871;31.584;74.450;2024-02-14T09:13:06;80.70;;;35.95;;
31238;SDS011;17871;31.584;74.450;2024-02-14T09:15:35;80.45;;;35.33;;
31238;SDS011;17871;31.584;74.450;2024-02-14T09:18:05;79.07;;;34.95;;
31238;SDS011;17871;31.584;74.450;2024-02-14T09:20:34;77.47;;;34.63;;
31238;SDS011;17871;31.584;74.450;2024-02-14T09:23:03;73.90;;;31.17;;
31238;SDS011;17871;31.584;74.450;2024-02-14T09:25:32;62.47;;;28.90;;
31238;SDS011;17871;31.584;74.450;2024-02-14T09:28:01;56.13;;;30.08;;
31238;SDS011;17871;31.584;74.450;2024-02-14T09:30:30;58.20;;;29.55;;
31238;SDS011;17871;31.584;74.450;2024-02-14T09:33:05;59.08;;;28.50;;
31238;SDS011;17871;31.584;74.450;2024-02-14T09:35:34;62.50;;;33.00;;
31238;SDS011;17871;31.584;74.450;2024-02-14T09:38:06;62.23;;;27.40;;
31238;SDS011;17871;31.584;74.450;2024-02-14T09:40:35;52.58;;;26.23;;
31238;SDS011;17871;31.584;74.450;2024-02-14T09:43:05;54.38;;;24.20;;
31238;SDS011;17871;31.584;74.450;2024-02-14T09:45:34;43.25;;;25.73;;
31238;SDS011;17871;31.584;74.450;2024-02-14T09:48:04;50.35;;;20.77;;
31238;SDS011;17871;31.584;74.450;2024-02-14T09:50:34;50.50;;;22.15;;
31238;SDS011;17871;31.584;74.450;2024-02-14T09:53:04;40.92;;;22.05;;
31238;SDS011;17871;31.584;74.450;2024-02-14T09:58:07;30.92;;;16.85;;
31238;SDS011;17871;31.584;74.450;2024-02-14T10:00:36;61.20;;;24.63;;
31238;SDS011;17871;31.584;74.450;2024-02-14T10:03:05;57.88;;;27.63;;
31238;SDS011;17871;31.584;74.450;2024-02-14T10:05:35;58.17;;;29.33;;
31238;SDS011;17871;31.584;74.450;2024-02-14T10:08:04;66.88;;;34.88;;
31238;SDS011;17871;31.584;74.450;2024-02-14T10:10:34;82.53;;;34.05;;
31238;SDS011;17871;31.584;74.450;2024-02-14T10:13:06;57.42;;;31.40;;
31238;SDS011;17871;31.584;74.450;2024-02-14T10:15:35;59.35;;;30.20;;
31238;SDS011;17871;31.584;74.450;2024-02-14T10:18:04;52.25;;;28.85;;
31238;SDS011;17871;31.584;74.450;2024-02-14T10:20:33;93.47;;;28.92;;
31238;SDS011;17871;31.584;74.450;2024-02-14T10:23:03;83.25;;;30.23;;
31238;SDS011;17871;31.584;74.450;2024-02-14T10:25:34;62.10;;;27.92;;
31238;SDS011;17871;31.584;74.450;2024-02-14T10:28:04;60.25;;;27.77;;
31238;SDS011;17871;31.584;74.450;2024-02-14T10:30:36;65.57;;;28.13;;
31238;SDS011;17871;31.584;74.450;2024-02-14T10:33:09;56.53;;;29.42;;
31238;SDS011;17871;31.584;74.450;2024-02-14T10:35:52;116.68;;;32.17;;
31238;SDS011;17871;31.584;74.450;2024-02-14T10:38:27;66.20;;;31.75;;
31238;SDS011;17871;31.584;74.450;2024-02-14T10:41:01;76.30;;;29.67;;
31238;SDS011;17871;31.584;74.450;2024-02-14T10:43:33;62.05;;;27.92;;
31238;SDS011;17871;31.584;74.450;2024-02-14T10:46:04;55.05;;;29.42;;
31238;SDS011;17871;31.584;74.450;2024-02-14T10:48:34;52.33;;;24.00;;
31238;SDS011;17871;31.584;74.450;2024-02-14T10:53:36;60.53;;;30.60;;
31238;SDS011;17871;31.584;74.450;2024-02-14T10:56:16;64.18;;;29.58;;
31238;SDS011;17871;31.584;74.450;2024-02-14T10:58:47;54.08;;;29.05;;
31238;SDS011;17871;31.584;74.450;2024-02-14T11:01:17;61.67;;;30.08;;
31238;SDS011;17871;31.584;74.450;2024-02-14T11:03:47;63.35;;;33.38;;
31238;SDS011;17871;31.584;74.450;2024-02-14T11:06:21;80.88;;;37.28;;
31238;SDS011;17871;31.584;74.450;2024-02-14T11:09:03;59.80;;;30.50;;
31238;SDS011;17871;31.584;74.450;2024-02-14T11:11:39;58.72;;;30.65;;
31238;SDS011;17871;31.584;74.450;2024-02-14T11:14:08;53.50;;;28.40;;
31238;SDS011;17871;31.584;74.450;2024-02-14T11:16:37;68.05;;;31.13;;
31238;SDS011;17871;31.584;74.450;2024-02-14T11:19:09;53.53;;;29.58;;
31238;SDS011;17871;31.584;74.450;2024-02-14T11:21:46;61.40;;;30.83;;
31238;SDS011;17871;31.584;74.450;2024-02-14T11:24:16;96.78;;;39.88;;
31238;SDS011;17871;31.584;74.450;2024-02-14T11:26:50;103.53;;;36.45;;
31238;SDS011;17871;31.584;74.450;2024-02-14T11:29:20;73.65;;;38.50;;
31238;SDS011;17871;31.584;74.450;2024-02-14T11:32:00;87.05;;;38.75;;
31238;SDS011;17871;31.584;74.450;2024-02-14T11:34:30;75.65;;;38.35;;
31238;SDS011;17871;31.584;74.450;2024-02-14T11:37:05;100.10;;;42.45;;
31238;SDS011;17871;31.584;74.450;2024-02-14T11:39:34;81.35;;;37.60;;
31238;SDS011;17871;31.584;74.450;2024-02-14T11:42:04;50.03;;;25.73;;
31238;SDS011;17871;31.584;74.450;2024-02-14T11:44:34;55.72;;;25.05;;
31238;SDS011;17871;31.584;74.450;2024-02-14T11:47:06;58.85;;;24.67;;
31238;SDS011;17871;31.584;74.450;2024-02-14T11:49:36;51.47;;;24.65;;
31238;SDS011;17871;31.584;74.450;2024-02-14T11:52:11;41.00;;;23.75;;
31238;SDS011;17871;31.584;74.450;2024-02-14T11:54:48;64.80;;;25.15;;
31238;SDS011;17871;31.584;74.450;2024-02-14T11:57:17;55.63;;;26.63;;
31238;SDS011;17871;31.584;74.450;2024-02-14T11:59:49;57.90;;;28.38;;
31238;SDS011;17871;31.584;74.450;2024-02-14T12:02:21;67.97;;;32.13;;
31238;SDS011;17871;31.584;74.450;2024-02-14T12:04:51;62.25;;;29.23;;
31238;SDS011;17871;31.584;74.450;2024-02-14T12:07:22;53.97;;;29.05;;
31238;SDS011;17871;31.584;74.450;2024-02-14T12:09:52;61.38;;;29.35;;
31238;SDS011;17871;31.584;74.450;2024-02-14T12:12:24;71.25;;;28.38;;
31238;SDS011;17871;31.584;74.450;2024-02-14T12:14:52;58.53;;;26.98;;
31238;SDS011;17871;31.584;74.450;2024-02-14T12:17:22;59.95;;;29.50;;
31238;SDS011;17871;31.584;74.450;2024-02-14T12:19:51;64.60;;;30.58;;
31238;SDS011;17871;31.584;74.450;2024-02-14T12:22:21;68.03;;;31.85;;
31238;SDS011;17871;31.584;74.450;2024-02-14T12:24:55;64.80;;;31.08;;
31238;SDS011;17871;31.584;74.450;2024-02-14T12:27:26;68.03;;;35.45;;
31238;SDS011;17871;31.584;74.450;2024-02-14T12:29:55;77.13;;;36.47;;
31238;SDS011;17871;31.584;74.450;2024-02-14T12:32:24;70.28;;;36.10;;
31238;SDS011;17871;31.584;74.450;2024-02-14T12:34:55;83.80;;;36.75;;
31238;SDS011;17871;31.584;74.450;2024-02-14T12:37:24;87.60;;;38.83;;
31238;SDS011;17871;31.584;74.450;2024-02-14T12:39:53;96.07;;;41.88;;
31238;SDS011;17871;31.584;74.450;2024-02-14T12:42:23;107.10;;;48.25;;
31238;SDS011;17871;31.584;74.450;2024-02-14T12:44:55;92.95;;;46.53;;
31238;SDS011;17871;31.584;74.450;2024-02-14T12:47:24;93.57;;;41.67;;
31238;SDS011;17871;31.584;74.450;2024-02-14T12:50:00;81.00;;;37.88;;
31238;SDS011;17871;31.584;74.450;2024-02-14T12:52:29;69.22;;;34.53;;
31238;SDS011;17871;31.584;74.450;2024-02-14T12:54:58;70.53;;;33.85;;
31238;SDS011;17871;31.584;74.450;2024-02-14T12:57:27;82.40;;;35.60;;
31238;SDS011;17871;31.584;74.450;2024-02-14T12:59:56;79.68;;;33.97;;
31238;SDS011;17871;31.584;74.450;2024-02-14T13:02:25;86.63;;;34.25;;
31238;SDS011;17871;31.584;74.450;2024-02-14T13:04:57;88.17;;;33.77;;
31238;SDS011;17871;31.584;74.450;2024-02-14T13:07:26;75.05;;;34.55;;
31238;SDS011;17871;31.584;74.450;2024-02-14T13:09:55;79.00;;;37.13;;
31238;SDS011;17871;31.584;74.450;2024-02-14T13:12:24;70.63;;;37.00;;
31238;SDS011;17871;31.584;74.450;2024-02-14T13:14:53;93.07;;;38.08;;
31238;SDS011;17871;31.584;74.450;2024-02-14T13:17:22;69.50;;;35.55;;
31238;SDS011;17871;31.584;74.450;2024-02-14T13:22:23;77.82;;;39.10;;
31238;SDS011;17871;31.584;74.450;2024-02-14T13:24:53;106.75;;;42.83;;
31238;SDS011;17871;31.584;74.450;2024-02-14T13:27:22;98.80;;;44.00;;
31238;SDS011;17871;31.584;74.450;2024-02-14T13:29:51;97.32;;;48.45;;
31238;SDS011;17871;31.584;74.450;2024-02-14T13:32:21;98.25;;;48.00;;
31238;SDS011;17871;31.584;74.450;2024-02-14T13:34:50;105.05;;;48.92;;
31238;SDS011;17871;31.584;74.450;2024-02-14T13:37:19;104.18;;;50.85;;
31238;SDS011;17871;31.584;74.450;2024-02-14T13:39:49;108.25;;;50.72;;
31238;SDS011;17871;31.584;74.450;2024-02-14T13:42:18;98.60;;;48.40;;
31238;SDS011;17871;31.584;74.450;2024-02-14T13:44:48;107.57;;;50.90;;
31238;SDS011;17871;31.584;74.450;2024-02-14T13:47:17;110.00;;;49.85;;
31238;SDS011;17871;31.584;74.450;2024-02-14T13:49:49;100.32;;;48.22;;
31238;SDS011;17871;31.584;74.450;2024-02-14T13:52:20;121.10;;;50.13;;
31238;SDS011;17871;31.584;74.450;2024-02-14T13:54:49;132.90;;;49.45;;
31238;SDS011;17871;31.584;74.450;2024-02-14T13:57:18;97.65;;;46.45;;
31238;SDS011;17871;31.584;74.450;2024-02-14T13:59:48;104.25;;;44.70;;
31238;SDS011;17871;31.584;74.450;2024-02-14T14:02:19;115.82;;;46.30;;
31238;SDS011;17871;31.584;74.450;2024-02-14T14:04:48;91.45;;;45.00;;
31238;SDS011;17871;31.584;74.450;2024-02-14T14:07:17;80.15;;;43.38;;
31238;SDS011;17871;31.584;74.450;2024-02-14T14:09:46;97.70;;;45.20;;
31238;SDS011;17871;31.584;74.450;2024-02-14T14:12:16;92.47;;;43.65;;
31238;SDS011;17871;31.584;74.450;2024-02-14T14:14:45;107.45;;;44.25;;
31238;SDS011;17871;31.584;74.450;2024-02-14T14:17:15;115.55;;;49.60;;
31238;SDS011;17871;31.584;74.450;2024-02-14T14:19:45;104.22;;;46.40;;
31238;SDS011;17871;31.584;74.450;2024-02-14T14:22:14;116.60;;;46.92;;
31238;SDS011;17871;31.584;74.450;2024-02-14T14:24:44;110.55;;;49.90;;